aviador You're here:

CYMT Decoded Metar

CHIBOUGAMAU CHAP in QC, CANADA
Report Time2017-09-20 12:00:00
UTC Time2017-09-20 13:01:49
Flight Rules ifr IFR
WindCalm
Visibility3621 m
Phenomena:Mist
Clouds:N/A
Expected CloudBase > 400 ft AGL from Temp-Dew spread
CeilingNone
Temp08°C (ISA -4)
Dew Point07°C (93% RH)
AAT7.3°C
QNH1022 hPa
Density Alt571 ft
Elevation1,270 ft
Report Wrong Elevation
Raw Report
CYMT 201200Z AUTO 00000KT 2 1/4SM BR CLR 08/07 A3019 RMK
SLP235=

Extra information for CYMT:More info

Metar Taf Metar & Taf Last 4 Metars F.Rules Stats Wind Profile Meteogram Temp Stats Airport Information Weather charts Add Link Nearby VenuesMetar ALERT Operation Metar Decoded Social comments